sensor_id;sensor_type;location;lat;lon;timestamp;P1;durP1;ratioP1;P2;durP2;ratioP2
63089;SDS011;49174;43.198;27.824;2023-05-10T00:01:06;13.05;;;4.70;;
63089;SDS011;49174;43.198;27.824;2023-05-10T00:03:32;12.68;;;5.30;;
63089;SDS011;49174;43.198;27.824;2023-05-10T00:05:58;7.57;;;4.55;;
63089;SDS011;49174;43.198;27.824;2023-05-10T00:08:23;8.40;;;4.90;;
63089;SDS011;49174;43.198;27.824;2023-05-10T00:10:49;11.40;;;4.57;;
63089;SDS011;49174;43.198;27.824;2023-05-10T00:13:15;8.77;;;4.45;;
63089;SDS011;49174;43.198;27.824;2023-05-10T00:15:42;9.30;;;5.53;;
63089;SDS011;49174;43.198;27.824;2023-05-10T00:18:07;11.65;;;5.10;;
63089;SDS011;49174;43.198;27.824;2023-05-10T00:20:33;9.85;;;5.32;;
63089;SDS011;49174;43.198;27.824;2023-05-10T00:22:58;12.63;;;6.80;;
63089;SDS011;49174;43.198;27.824;2023-05-10T00:25:24;10.35;;;4.85;;
63089;SDS011;49174;43.198;27.824;2023-05-10T00:27:51;8.00;;;5.20;;
63089;SDS011;49174;43.198;27.824;2023-05-10T00:30:16;10.43;;;5.25;;
63089;SDS011;49174;43.198;27.824;2023-05-10T00:32:42;12.73;;;5.25;;
63089;SDS011;49174;43.198;27.824;2023-05-10T00:35:09;9.77;;;5.30;;
63089;SDS011;49174;43.198;27.824;2023-05-10T00:37:35;11.68;;;5.70;;
63089;SDS011;49174;43.198;27.824;2023-05-10T00:40:04;13.45;;;6.32;;
63089;SDS011;49174;43.198;27.824;2023-05-10T00:42:30;10.65;;;6.45;;
63089;SDS011;49174;43.198;27.824;2023-05-10T00:44:56;10.38;;;5.18;;
63089;SDS011;49174;43.198;27.824;2023-05-10T00:47:22;14.43;;;6.05;;
63089;SDS011;49174;43.198;27.824;2023-05-10T00:49:48;14.85;;;5.72;;
63089;SDS011;49174;43.198;27.824;2023-05-10T00:52:13;9.75;;;6.45;;
63089;SDS011;49174;43.198;27.824;2023-05-10T00:54:39;9.15;;;5.70;;
63089;SDS011;49174;43.198;27.824;2023-05-10T00:57:05;7.93;;;5.28;;
63089;SDS011;49174;43.198;27.824;2023-05-10T00:59:30;8.07;;;5.43;;
63089;SDS011;49174;43.198;27.824;2023-05-10T01:01:57;9.10;;;5.38;;
63089;SDS011;49174;43.198;27.824;2023-05-10T01:04:23;8.75;;;5.35;;
63089;SDS011;49174;43.198;27.824;2023-05-10T01:06:51;14.65;;;6.13;;
63089;SDS011;49174;43.198;27.824;2023-05-10T01:09:17;9.82;;;5.70;;
63089;SDS011;49174;43.198;27.824;2023-05-10T01:11:44;9.35;;;6.10;;
63089;SDS011;49174;43.198;27.824;2023-05-10T01:14:10;9.02;;;6.20;;
63089;SDS011;49174;43.198;27.824;2023-05-10T01:16:38;9.43;;;5.65;;
63089;SDS011;49174;43.198;27.824;2023-05-10T01:19:10;8.77;;;5.60;;
63089;SDS011;49174;43.198;27.824;2023-05-10T01:21:59;10.07;;;6.70;;
63089;SDS011;49174;43.198;27.824;2023-05-10T01:35:45;12.98;;;6.25;;
63089;SDS011;49174;43.198;27.824;2023-05-10T01:41:14;11.32;;;6.13;;
63089;SDS011;49174;43.198;27.824;2023-05-10T01:46:36;12.32;;;6.82;;
63089;SDS011;49174;43.198;27.824;2023-05-10T01:49:06;13.38;;;6.20;;
63089;SDS011;49174;43.198;27.824;2023-05-10T01:51:57;11.23;;;6.60;;
63089;SDS011;49174;43.198;27.824;2023-05-10T01:54:29;14.63;;;6.38;;
63089;SDS011;49174;43.198;27.824;2023-05-10T01:57:03;12.50;;;6.53;;
63089;SDS011;49174;43.198;27.824;2023-05-10T01:59:34;14.80;;;7.00;;
63089;SDS011;49174;43.198;27.824;2023-05-10T02:02:06;12.80;;;6.72;;
63089;SDS011;49174;43.198;27.824;2023-05-10T02:04:33;13.68;;;6.38;;
63089;SDS011;49174;43.198;27.824;2023-05-10T02:07:03;16.60;;;6.85;;
63089;SDS011;49174;43.198;27.824;2023-05-10T02:09:30;13.27;;;7.35;;
63089;SDS011;49174;43.198;27.824;2023-05-10T02:11:59;11.52;;;6.10;;
63089;SDS011;49174;43.198;27.824;2023-05-10T02:14:28;10.70;;;6.68;;
63089;SDS011;49174;43.198;27.824;2023-05-10T02:16:58;12.43;;;6.85;;
63089;SDS011;49174;43.198;27.824;2023-05-10T02:19:25;11.73;;;6.78;;
63089;SDS011;49174;43.198;27.824;2023-05-10T02:21:53;13.85;;;7.03;;
63089;SDS011;49174;43.198;27.824;2023-05-10T02:24:20;13.40;;;5.78;;
63089;SDS011;49174;43.198;27.824;2023-05-10T02:26:49;14.88;;;7.00;;
63089;SDS011;49174;43.198;27.824;2023-05-10T02:29:18;14.05;;;6.63;;
63089;SDS011;49174;43.198;27.824;2023-05-10T02:31:45;12.63;;;7.43;;
63089;SDS011;49174;43.198;27.824;2023-05-10T02:34:11;11.27;;;7.00;;
63089;SDS011;49174;43.198;27.824;2023-05-10T02:36:38;12.20;;;6.43;;
63089;SDS011;49174;43.198;27.824;2023-05-10T02:39:06;13.05;;;6.30;;
63089;SDS011;49174;43.198;27.824;2023-05-10T02:41:37;11.52;;;6.03;;
63089;SDS011;49174;43.198;27.824;2023-05-10T02:44:06;13.27;;;6.90;;
63089;SDS011;49174;43.198;27.824;2023-05-10T02:46:33;8.65;;;5.53;;
63089;SDS011;49174;43.198;27.824;2023-05-10T02:48:59;11.07;;;6.15;;
63089;SDS011;49174;43.198;27.824;2023-05-10T02:51:30;10.63;;;6.30;;
63089;SDS011;49174;43.198;27.824;2023-05-10T02:54:29;11.52;;;7.15;;
63089;SDS011;49174;43.198;27.824;2023-05-10T02:56:59;10.60;;;6.97;;
63089;SDS011;49174;43.198;27.824;2023-05-10T02:59:26;11.55;;;7.40;;
63089;SDS011;49174;43.198;27.824;2023-05-10T03:01:54;9.63;;;6.55;;
63089;SDS011;49174;43.198;27.824;2023-05-10T03:04:19;9.95;;;7.30;;
63089;SDS011;49174;43.198;27.824;2023-05-10T03:06:45;8.70;;;6.78;;
63089;SDS011;49174;43.198;27.824;2023-05-10T03:09:11;13.30;;;7.88;;
63089;SDS011;49174;43.198;27.824;2023-05-10T03:22:47;12.00;;;8.43;;
63089;SDS011;49174;43.198;27.824;2023-05-10T03:25:18;13.02;;;8.73;;
63089;SDS011;49174;43.198;27.824;2023-05-10T03:27:46;11.40;;;8.40;;
63089;SDS011;49174;43.198;27.824;2023-05-10T03:30:13;13.75;;;8.40;;
63089;SDS011;49174;43.198;27.824;2023-05-10T03:32:39;11.18;;;7.80;;
63089;SDS011;49174;43.198;27.824;2023-05-10T03:35:08;11.50;;;8.20;;
63089;SDS011;49174;43.198;27.824;2023-05-10T03:37:35;13.95;;;9.43;;
63089;SDS011;49174;43.198;27.824;2023-05-10T03:40:01;15.80;;;10.15;;
63089;SDS011;49174;43.198;27.824;2023-05-10T03:42:27;14.07;;;10.65;;
63089;SDS011;49174;43.198;27.824;2023-05-10T03:44:53;16.60;;;11.30;;
63089;SDS011;49174;43.198;27.824;2023-05-10T03:47:19;15.82;;;11.60;;
63089;SDS011;49174;43.198;27.824;2023-05-10T03:49:44;16.00;;;12.05;;
63089;SDS011;49174;43.198;27.824;2023-05-10T03:52:10;17.52;;;12.73;;
63089;SDS011;49174;43.198;27.824;2023-05-10T03:54:36;20.80;;;12.43;;
63089;SDS011;49174;43.198;27.824;2023-05-10T03:57:01;19.63;;;11.73;;
63089;SDS011;49174;43.198;27.824;2023-05-10T03:59:28;17.25;;;12.13;;
63089;SDS011;49174;43.198;27.824;2023-05-10T04:01:53;19.05;;;12.88;;
63089;SDS011;49174;43.198;27.824;2023-05-10T04:04:19;21.45;;;12.10;;
63089;SDS011;49174;43.198;27.824;2023-05-10T04:06:45;16.60;;;11.65;;
63089;SDS011;49174;43.198;27.824;2023-05-10T04:09:11;16.65;;;11.13;;
63089;SDS011;49174;43.198;27.824;2023-05-10T04:11:37;18.08;;;11.90;;
63089;SDS011;49174;43.198;27.824;2023-05-10T04:14:02;17.73;;;10.00;;
63089;SDS011;49174;43.198;27.824;2023-05-10T04:16:28;14.70;;;9.57;;
63089;SDS011;49174;43.198;27.824;2023-05-10T04:18:53;15.50;;;10.00;;
63089;SDS011;49174;43.198;27.824;2023-05-10T04:21:19;16.85;;;9.45;;
63089;SDS011;49174;43.198;27.824;2023-05-10T04:23:44;16.67;;;9.93;;
63089;SDS011;49174;43.198;27.824;2023-05-10T04:26:10;19.05;;;11.80;;
63089;SDS011;49174;43.198;27.824;2023-05-10T04:28:35;17.95;;;10.18;;
63089;SDS011;49174;43.198;27.824;2023-05-10T04:31:06;17.02;;;9.70;;
63089;SDS011;49174;43.198;27.824;2023-05-10T04:33:39;13.90;;;9.63;;
63089;SDS011;49174;43.198;27.824;2023-05-10T04:36:16;16.75;;;9.73;;
63089;SDS011;49174;43.198;27.824;2023-05-10T04:49:29;13.52;;;9.07;;
63089;SDS011;49174;43.198;27.824;2023-05-10T04:51:55;18.33;;;9.73;;
63089;SDS011;49174;43.198;27.824;2023-05-10T04:54:21;13.82;;;9.02;;
63089;SDS011;49174;43.198;27.824;2023-05-10T04:56:47;17.35;;;10.13;;
63089;SDS011;49174;43.198;27.824;2023-05-10T04:59:12;15.75;;;8.88;;
63089;SDS011;49174;43.198;27.824;2023-05-10T05:01:38;15.85;;;9.00;;
63089;SDS011;49174;43.198;27.824;2023-05-10T05:04:04;15.95;;;9.18;;
63089;SDS011;49174;43.198;27.824;2023-05-10T05:06:30;12.80;;;8.02;;
63089;SDS011;49174;43.198;27.824;2023-05-10T05:08:55;13.48;;;8.75;;
63089;SDS011;49174;43.198;27.824;2023-05-10T05:11:21;14.77;;;9.43;;
63089;SDS011;49174;43.198;27.824;2023-05-10T05:13:46;15.23;;;7.68;;
63089;SDS011;49174;43.198;27.824;2023-05-10T05:16:13;13.82;;;8.82;;
63089;SDS011;49174;43.198;27.824;2023-05-10T05:18:39;13.38;;;7.85;;
63089;SDS011;49174;43.198;27.824;2023-05-10T05:21:17;11.52;;;7.88;;
63089;SDS011;49174;43.198;27.824;2023-05-10T05:46:07;11.43;;;5.70;;
63089;SDS011;49174;43.198;27.824;2023-05-10T06:14:58;2.97;;;2.55;;
63089;SDS011;49174;43.198;27.824;2023-05-10T06:42:25;3.05;;;2.15;;
63089;SDS011;49174;43.198;27.824;2023-05-10T07:11:14;3.38;;;1.92;;
63089;SDS011;49174;43.198;27.824;2023-05-10T08:36:16;2.22;;;1.90;;
63089;SDS011;49174;43.198;27.824;2023-05-10T09:04:33;3.53;;;1.90;;
63089;SDS011;49174;43.198;27.824;2023-05-10T09:23:24;3.80;;;1.98;;
63089;SDS011;49174;43.198;27.824;2023-05-10T09:31:47;3.22;;;1.67;;
63089;SDS011;49174;43.198;27.824;2023-05-10T09:37:00;3.50;;;1.70;;
63089;SDS011;49174;43.198;27.824;2023-05-10T09:39:36;3.08;;;2.17;;
63089;SDS011;49174;43.198;27.824;2023-05-10T09:42:06;3.23;;;1.87;;
63089;SDS011;49174;43.198;27.824;2023-05-10T09:44:33;3.22;;;2.00;;
63089;SDS011;49174;43.198;27.824;2023-05-10T09:46:59;4.07;;;1.88;;
63089;SDS011;49174;43.198;27.824;2023-05-10T09:49:25;4.03;;;2.00;;
63089;SDS011;49174;43.198;27.824;2023-05-10T09:54:45;2.33;;;1.48;;
63089;SDS011;49174;43.198;27.824;2023-05-10T09:57:18;6.70;;;2.30;;
63089;SDS011;49174;43.198;27.824;2023-05-10T09:59:46;4.60;;;1.95;;
63089;SDS011;49174;43.198;27.824;2023-05-10T10:02:12;5.43;;;2.13;;
63089;SDS011;49174;43.198;27.824;2023-05-10T10:04:39;3.85;;;2.20;;
63089;SDS011;49174;43.198;27.824;2023-05-10T10:07:06;3.40;;;1.80;;
63089;SDS011;49174;43.198;27.824;2023-05-10T10:09:32;4.82;;;2.13;;
63089;SDS011;49174;43.198;27.824;2023-05-10T10:12:00;5.78;;;1.98;;
63089;SDS011;49174;43.198;27.824;2023-05-10T11:04:55;6.63;;;2.28;;
63089;SDS011;49174;43.198;27.824;2023-05-10T11:07:21;3.80;;;1.70;;
63089;SDS011;49174;43.198;27.824;2023-05-10T11:09:47;5.13;;;1.70;;
63089;SDS011;49174;43.198;27.824;2023-05-10T11:12:12;4.10;;;1.58;;
63089;SDS011;49174;43.198;27.824;2023-05-10T11:14:38;3.83;;;1.58;;
63089;SDS011;49174;43.198;27.824;2023-05-10T11:20:13;2.17;;;1.40;;
63089;SDS011;49174;43.198;27.824;2023-05-10T11:22:49;2.00;;;1.65;;
63089;SDS011;49174;43.198;27.824;2023-05-10T11:25:18;5.72;;;1.80;;
63089;SDS011;49174;43.198;27.824;2023-05-10T11:33:08;3.35;;;1.80;;
63089;SDS011;49174;43.198;27.824;2023-05-10T11:35:38;3.10;;;1.65;;
63089;SDS011;49174;43.198;27.824;2023-05-10T11:38:07;4.07;;;1.85;;
63089;SDS011;49174;43.198;27.824;2023-05-10T11:40:33;3.30;;;1.50;;
63089;SDS011;49174;43.198;27.824;2023-05-10T11:43:03;3.10;;;1.55;;
63089;SDS011;49174;43.198;27.824;2023-05-10T11:45:29;2.85;;;1.90;;
63089;SDS011;49174;43.198;27.824;2023-05-10T11:47:58;2.60;;;1.73;;
63089;SDS011;49174;43.198;27.824;2023-05-10T11:50:24;3.75;;;1.75;;
63089;SDS011;49174;43.198;27.824;2023-05-10T11:52:51;5.03;;;1.60;;
63089;SDS011;49174;43.198;27.824;2023-05-10T11:55:17;3.80;;;1.60;;
63089;SDS011;49174;43.198;27.824;2023-05-10T11:57:43;5.28;;;1.83;;
63089;SDS011;49174;43.198;27.824;2023-05-10T12:00:11;2.67;;;1.75;;
63089;SDS011;49174;43.198;27.824;2023-05-10T12:02:40;3.85;;;1.75;;
63089;SDS011;49174;43.198;27.824;2023-05-10T12:05:06;4.38;;;1.90;;
63089;SDS011;49174;43.198;27.824;2023-05-10T12:07:32;2.70;;;1.95;;
63089;SDS011;49174;43.198;27.824;2023-05-10T12:10:13;6.75;;;1.95;;
63089;SDS011;49174;43.198;27.824;2023-05-10T12:12:40;3.65;;;1.80;;
63089;SDS011;49174;43.198;27.824;2023-05-10T12:15:25;2.75;;;1.77;;
63089;SDS011;49174;43.198;27.824;2023-05-10T12:17:50;5.32;;;2.00;;
63089;SDS011;49174;43.198;27.824;2023-05-10T12:20:17;5.43;;;2.10;;
63089;SDS011;49174;43.198;27.824;2023-05-10T12:22:47;1.40;;;1.20;;
63089;SDS011;49174;43.198;27.824;2023-05-10T12:25:22;3.17;;;1.75;;
63089;SDS011;49174;43.198;27.824;2023-05-10T12:27:53;4.70;;;2.50;;
63089;SDS011;49174;43.198;27.824;2023-05-10T12:30:24;4.20;;;2.05;;
63089;SDS011;49174;43.198;27.824;2023-05-10T12:32:53;3.05;;;1.60;;
63089;SDS011;49174;43.198;27.824;2023-05-10T12:35:24;1.98;;;1.70;;
63089;SDS011;49174;43.198;27.824;2023-05-10T12:37:50;3.00;;;1.80;;
63089;SDS011;49174;43.198;27.824;2023-05-10T12:40:16;3.75;;;1.70;;
63089;SDS011;49174;43.198;27.824;2023-05-10T12:42:42;2.60;;;1.75;;
63089;SDS011;49174;43.198;27.824;2023-05-10T12:45:17;3.33;;;1.75;;
63089;SDS011;49174;43.198;27.824;2023-05-10T12:48:02;1.95;;;1.67;;
63089;SDS011;49174;43.198;27.824;2023-05-10T12:50:27;3.63;;;1.90;;
63089;SDS011;49174;43.198;27.824;2023-05-10T12:52:52;6.40;;;2.15;;
63089;SDS011;49174;43.198;27.824;2023-05-10T12:55:18;3.20;;;1.88;;
63089;SDS011;49174;43.198;27.824;2023-05-10T12:57:44;2.95;;;1.95;;
63089;SDS011;49174;43.198;27.824;2023-05-10T13:00:10;3.05;;;1.80;;
63089;SDS011;49174;43.198;27.824;2023-05-10T13:05:17;3.97;;;1.80;;
63089;SDS011;49174;43.198;27.824;2023-05-10T13:07:43;2.38;;;1.48;;
63089;SDS011;49174;43.198;27.824;2023-05-10T13:10:09;2.40;;;1.67;;
63089;SDS011;49174;43.198;27.824;2023-05-10T13:12:35;3.00;;;1.80;;
63089;SDS011;49174;43.198;27.824;2023-05-10T13:15:01;2.10;;;1.40;;
63089;SDS011;49174;43.198;27.824;2023-05-10T13:17:28;1.65;;;1.25;;
63089;SDS011;49174;43.198;27.824;2023-05-10T13:19:54;2.50;;;1.58;;
63089;SDS011;49174;43.198;27.824;2023-05-10T13:22:20;3.00;;;1.70;;
63089;SDS011;49174;43.198;27.824;2023-05-10T13:24:45;3.85;;;2.22;;
63089;SDS011;49174;43.198;27.824;2023-05-10T13:27:11;1.98;;;1.30;;
63089;SDS011;49174;43.198;27.824;2023-05-10T13:29:37;2.67;;;1.73;;
63089;SDS011;49174;43.198;27.824;2023-05-10T13:32:02;2.33;;;1.33;;
63089;SDS011;49174;43.198;27.824;2023-05-10T13:34:28;2.70;;;1.60;;
63089;SDS011;49174;43.198;27.824;2023-05-10T13:36:53;2.97;;;1.70;;
63089;SDS011;49174;43.198;27.824;2023-05-10T13:39:20;4.03;;;1.63;;
63089;SDS011;49174;43.198;27.824;2023-05-10T13:41:46;2.83;;;1.80;;
63089;SDS011;49174;43.198;27.824;2023-05-10T13:44:12;2.47;;;1.63;;
63089;SDS011;49174;43.198;27.824;2023-05-10T13:46:39;3.20;;;1.70;;
63089;SDS011;49174;43.198;27.824;2023-05-10T13:49:05;2.75;;;1.52;;
63089;SDS011;49174;43.198;27.824;2023-05-10T13:51:30;2.22;;;1.50;;
63089;SDS011;49174;43.198;27.824;2023-05-10T13:53:59;2.95;;;1.70;;
63089;SDS011;49174;43.198;27.824;2023-05-10T13:56:24;4.35;;;1.80;;
63089;SDS011;49174;43.198;27.824;2023-05-10T13:58:50;2.47;;;1.80;;
63089;SDS011;49174;43.198;27.824;2023-05-10T14:01:16;3.67;;;1.75;;
63089;SDS011;49174;43.198;27.824;2023-05-10T14:03:42;4.63;;;1.50;;
63089;SDS011;49174;43.198;27.824;2023-05-10T14:06:08;3.25;;;1.77;;
63089;SDS011;49174;43.198;27.824;2023-05-10T14:08:33;2.35;;;1.30;;
63089;SDS011;49174;43.198;27.824;2023-05-10T14:11:00;2.70;;;1.77;;
63089;SDS011;49174;43.198;27.824;2023-05-10T14:13:26;3.67;;;1.85;;
63089;SDS011;49174;43.198;27.824;2023-05-10T14:21:15;5.40;;;1.90;;
63089;SDS011;49174;43.198;27.824;2023-05-10T14:47:58;6.00;;;1.40;;
63089;SDS011;49174;43.198;27.824;2023-05-10T15:01:40;4.72;;;1.60;;
63089;SDS011;49174;43.198;27.824;2023-05-10T15:04:07;4.20;;;2.05;;
63089;SDS011;49174;43.198;27.824;2023-05-10T15:06:49;3.33;;;1.60;;
63089;SDS011;49174;43.198;27.824;2023-05-10T15:23:20;4.72;;;1.88;;
63089;SDS011;49174;43.198;27.824;2023-05-10T15:25:46;4.53;;;1.75;;
63089;SDS011;49174;43.198;27.824;2023-05-10T15:28:14;12.55;;;8.98;;
63089;SDS011;49174;43.198;27.824;2023-05-10T15:30:40;4.43;;;1.85;;
63089;SDS011;49174;43.198;27.824;2023-05-10T15:33:06;5.00;;;2.00;;
63089;SDS011;49174;43.198;27.824;2023-05-10T16:00:23;3.67;;;2.08;;
63089;SDS011;49174;43.198;27.824;2023-05-10T16:08:11;5.63;;;2.20;;
63089;SDS011;49174;43.198;27.824;2023-05-10T16:10:37;2.33;;;1.60;;
63089;SDS011;49174;43.198;27.824;2023-05-10T16:13:02;8.27;;;2.05;;
63089;SDS011;49174;43.198;27.824;2023-05-10T16:15:36;3.70;;;2.17;;
63089;SDS011;49174;43.198;27.824;2023-05-10T16:18:02;4.13;;;2.30;;
63089;SDS011;49174;43.198;27.824;2023-05-10T16:20:27;3.55;;;2.40;;
63089;SDS011;49174;43.198;27.824;2023-05-10T16:22:54;3.97;;;2.40;;
63089;SDS011;49174;43.198;27.824;2023-05-10T16:25:20;5.32;;;1.85;;
63089;SDS011;49174;43.198;27.824;2023-05-10T16:28:04;4.65;;;2.33;;
63089;SDS011;49174;43.198;27.824;2023-05-10T16:30:29;5.47;;;2.25;;
63089;SDS011;49174;43.198;27.824;2023-05-10T16:32:55;70.13;;;35.17;;
63089;SDS011;49174;43.198;27.824;2023-05-10T16:35:22;3.67;;;2.17;;
63089;SDS011;49174;43.198;27.824;2023-05-10T16:37:53;2.75;;;2.10;;
63089;SDS011;49174;43.198;27.824;2023-05-10T16:40:19;4.68;;;2.00;;
63089;SDS011;49174;43.198;27.824;2023-05-10T16:42:49;5.05;;;2.30;;
63089;SDS011;49174;43.198;27.824;2023-05-10T16:45:15;4.57;;;2.30;;
63089;SDS011;49174;43.198;27.824;2023-05-10T16:47:41;2.97;;;2.03;;
63089;SDS011;49174;43.198;27.824;2023-05-10T16:50:07;3.92;;;2.13;;
63089;SDS011;49174;43.198;27.824;2023-05-10T16:55:14;3.15;;;1.92;;
63089;SDS011;49174;43.198;27.824;2023-05-10T16:57:39;5.53;;;2.58;;
63089;SDS011;49174;43.198;27.824;2023-05-10T17:00:05;4.03;;;2.50;;
63089;SDS011;49174;43.198;27.824;2023-05-10T17:02:31;2.70;;;2.10;;
63089;SDS011;49174;43.198;27.824;2023-05-10T17:04:56;4.13;;;1.88;;
63089;SDS011;49174;43.198;27.824;2023-05-10T17:07:22;4.78;;;2.60;;
63089;SDS011;49174;43.198;27.824;2023-05-10T17:09:47;6.90;;;2.55;;
63089;SDS011;49174;43.198;27.824;2023-05-10T17:12:13;5.57;;;2.58;;
63089;SDS011;49174;43.198;27.824;2023-05-10T17:14:39;5.32;;;2.50;;
63089;SDS011;49174;43.198;27.824;2023-05-10T17:17:04;2.88;;;2.20;;
63089;SDS011;49174;43.198;27.824;2023-05-10T17:19:31;3.88;;;2.03;;
63089;SDS011;49174;43.198;27.824;2023-05-10T17:21:56;2.97;;;2.47;;
63089;SDS011;49174;43.198;27.824;2023-05-10T17:24:22;4.05;;;2.70;;
63089;SDS011;49174;43.198;27.824;2023-05-10T17:26:47;4.03;;;3.00;;
63089;SDS011;49174;43.198;27.824;2023-05-10T17:29:13;3.80;;;2.17;;
63089;SDS011;49174;43.198;27.824;2023-05-10T17:31:38;3.80;;;2.50;;
63089;SDS011;49174;43.198;27.824;2023-05-10T17:34:04;4.15;;;2.90;;
63089;SDS011;49174;43.198;27.824;2023-05-10T17:36:30;7.07;;;2.90;;
63089;SDS011;49174;43.198;27.824;2023-05-10T17:38:56;3.50;;;2.50;;
63089;SDS011;49174;43.198;27.824;2023-05-10T17:41:22;3.63;;;2.20;;
63089;SDS011;49174;43.198;27.824;2023-05-10T17:43:48;3.92;;;2.58;;
63089;SDS011;49174;43.198;27.824;2023-05-10T17:46:14;3.95;;;3.25;;
63089;SDS011;49174;43.198;27.824;2023-05-10T17:48:39;4.75;;;2.78;;
63089;SDS011;49174;43.198;27.824;2023-05-10T17:51:05;4.75;;;2.80;;
63089;SDS011;49174;43.198;27.824;2023-05-10T17:53:32;4.32;;;2.72;;
63089;SDS011;49174;43.198;27.824;2023-05-10T17:55:59;7.18;;;3.08;;
63089;SDS011;49174;43.198;27.824;2023-05-10T17:58:27;6.03;;;2.75;;
63089;SDS011;49174;43.198;27.824;2023-05-10T18:00:53;5.22;;;2.47;;
63089;SDS011;49174;43.198;27.824;2023-05-10T18:03:19;5.93;;;2.58;;
63089;SDS011;49174;43.198;27.824;2023-05-10T18:05:45;4.55;;;2.70;;
63089;SDS011;49174;43.198;27.824;2023-05-10T18:08:11;24.65;;;15.55;;
63089;SDS011;49174;43.198;27.824;2023-05-10T18:10:37;7.20;;;2.95;;
63089;SDS011;49174;43.198;27.824;2023-05-10T18:13:03;5.07;;;2.80;;
63089;SDS011;49174;43.198;27.824;2023-05-10T18:15:32;3.42;;;2.70;;
63089;SDS011;49174;43.198;27.824;2023-05-10T18:18:07;4.22;;;2.45;;
63089;SDS011;49174;43.198;27.824;2023-05-10T18:20:33;5.78;;;3.05;;
63089;SDS011;49174;43.198;27.824;2023-05-10T18:22:59;5.00;;;3.00;;
63089;SDS011;49174;43.198;27.824;2023-05-10T18:25:24;4.80;;;3.10;;
63089;SDS011;49174;43.198;27.824;2023-05-10T18:27:50;6.68;;;2.60;;
63089;SDS011;49174;43.198;27.824;2023-05-10T18:30:16;3.90;;;2.50;;
63089;SDS011;49174;43.198;27.824;2023-05-10T18:32:42;4.35;;;2.75;;
63089;SDS011;49174;43.198;27.824;2023-05-10T18:35:08;5.93;;;3.17;;
63089;SDS011;49174;43.198;27.824;2023-05-10T18:37:35;3.72;;;2.60;;
63089;SDS011;49174;43.198;27.824;2023-05-10T18:40:03;3.35;;;2.35;;
63089;SDS011;49174;43.198;27.824;2023-05-10T18:42:30;5.20;;;2.75;;
63089;SDS011;49174;43.198;27.824;2023-05-10T18:44:56;3.50;;;2.75;;
63089;SDS011;49174;43.198;27.824;2023-05-10T18:47:21;4.05;;;2.33;;
63089;SDS011;49174;43.198;27.824;2023-05-10T18:49:47;3.20;;;2.50;;
63089;SDS011;49174;43.198;27.824;2023-05-10T18:52:12;3.92;;;2.50;;
63089;SDS011;49174;43.198;27.824;2023-05-10T18:54:40;4.68;;;2.50;;
63089;SDS011;49174;43.198;27.824;2023-05-10T18:57:06;4.40;;;2.53;;
63089;SDS011;49174;43.198;27.824;2023-05-10T18:59:32;4.60;;;2.45;;
63089;SDS011;49174;43.198;27.824;2023-05-10T19:01:57;3.28;;;2.60;;
63089;SDS011;49174;43.198;27.824;2023-05-10T19:04:23;6.78;;;2.72;;
63089;SDS011;49174;43.198;27.824;2023-05-10T19:06:48;8.65;;;3.08;;
63089;SDS011;49174;43.198;27.824;2023-05-10T19:09:14;5.05;;;2.75;;
63089;SDS011;49174;43.198;27.824;2023-05-10T19:11:40;4.30;;;2.47;;
63089;SDS011;49174;43.198;27.824;2023-05-10T19:14:07;5.88;;;2.65;;
63089;SDS011;49174;43.198;27.824;2023-05-10T19:16:32;7.25;;;3.05;;
63089;SDS011;49174;43.198;27.824;2023-05-10T19:18:58;3.13;;;2.40;;
63089;SDS011;49174;43.198;27.824;2023-05-10T19:21:24;3.60;;;2.42;;
63089;SDS011;49174;43.198;27.824;2023-05-10T19:23:49;3.95;;;2.55;;
63089;SDS011;49174;43.198;27.824;2023-05-10T19:26:16;5.35;;;3.03;;
63089;SDS011;49174;43.198;27.824;2023-05-10T19:28:41;5.20;;;3.13;;
63089;SDS011;49174;43.198;27.824;2023-05-10T19:31:07;37.65;;;20.63;;
63089;SDS011;49174;43.198;27.824;2023-05-10T19:33:32;5.93;;;3.38;;
63089;SDS011;49174;43.198;27.824;2023-05-10T19:35:58;7.07;;;3.47;;
63089;SDS011;49174;43.198;27.824;2023-05-10T19:38:24;5.85;;;3.50;;
63089;SDS011;49174;43.198;27.824;2023-05-10T19:40:58;5.95;;;3.42;;
63089;SDS011;49174;43.198;27.824;2023-05-10T19:45:50;4.05;;;2.67;;
63089;SDS011;49174;43.198;27.824;2023-05-10T19:48:15;3.22;;;2.25;;
63089;SDS011;49174;43.198;27.824;2023-05-10T19:50:41;5.25;;;2.33;;
63089;SDS011;49174;43.198;27.824;2023-05-10T19:53:06;4.30;;;2.35;;
63089;SDS011;49174;43.198;27.824;2023-05-10T19:55:32;4.68;;;2.40;;
63089;SDS011;49174;43.198;27.824;2023-05-10T19:57:59;4.53;;;1.90;;
63089;SDS011;49174;43.198;27.824;2023-05-10T20:00:25;7.78;;;3.10;;
63089;SDS011;49174;43.198;27.824;2023-05-10T20:02:51;4.00;;;2.05;;
63089;SDS011;49174;43.198;27.824;2023-05-10T20:05:18;4.07;;;2.35;;
63089;SDS011;49174;43.198;27.824;2023-05-10T20:07:43;3.95;;;2.58;;
63089;SDS011;49174;43.198;27.824;2023-05-10T20:10:10;7.72;;;2.92;;
63089;SDS011;49174;43.198;27.824;2023-05-10T20:12:36;5.47;;;2.95;;
63089;SDS011;49174;43.198;27.824;2023-05-10T20:15:02;4.40;;;2.67;;
63089;SDS011;49174;43.198;27.824;2023-05-10T20:17:28;5.95;;;2.85;;
63089;SDS011;49174;43.198;27.824;2023-05-10T20:19:53;5.53;;;2.65;;
63089;SDS011;49174;43.198;27.824;2023-05-10T20:22:19;5.25;;;2.53;;
63089;SDS011;49174;43.198;27.824;2023-05-10T20:24:44;8.43;;;2.97;;
63089;SDS011;49174;43.198;27.824;2023-05-10T20:27:15;4.53;;;2.47;;
63089;SDS011;49174;43.198;27.824;2023-05-10T20:29:41;6.18;;;2.90;;
63089;SDS011;49174;43.198;27.824;2023-05-10T20:32:06;4.28;;;2.53;;
63089;SDS011;49174;43.198;27.824;2023-05-10T20:34:33;5.47;;;2.70;;
63089;SDS011;49174;43.198;27.824;2023-05-10T20:36:59;4.07;;;2.70;;
63089;SDS011;49174;43.198;27.824;2023-05-10T20:39:24;3.60;;;2.60;;
63089;SDS011;49174;43.198;27.824;2023-05-10T20:41:50;5.65;;;3.55;;
63089;SDS011;49174;43.198;27.824;2023-05-10T20:44:18;5.15;;;3.33;;
63089;SDS011;49174;43.198;27.824;2023-05-10T20:46:44;6.07;;;3.70;;
63089;SDS011;49174;43.198;27.824;2023-05-10T20:49:09;6.50;;;3.40;;
63089;SDS011;49174;43.198;27.824;2023-05-10T20:51:35;4.32;;;2.97;;
63089;SDS011;49174;43.198;27.824;2023-05-10T20:54:00;5.88;;;3.55;;
63089;SDS011;49174;43.198;27.824;2023-05-10T20:56:28;5.70;;;3.35;;
63089;SDS011;49174;43.198;27.824;2023-05-10T20:58:54;6.10;;;3.92;;
63089;SDS011;49174;43.198;27.824;2023-05-10T21:01:20;11.25;;;4.00;;
63089;SDS011;49174;43.198;27.824;2023-05-10T21:03:46;4.53;;;3.38;;
63089;SDS011;49174;43.198;27.824;2023-05-10T21:06:11;5.03;;;3.55;;
63089;SDS011;49174;43.198;27.824;2023-05-10T21:08:37;6.82;;;3.92;;
63089;SDS011;49174;43.198;27.824;2023-05-10T21:11:02;5.93;;;4.28;;
63089;SDS011;49174;43.198;27.824;2023-05-10T21:13:31;6.60;;;4.13;;
63089;SDS011;49174;43.198;27.824;2023-05-10T21:15:57;7.15;;;5.28;;
63089;SDS011;49174;43.198;27.824;2023-05-10T21:18:22;9.25;;;5.35;;
63089;SDS011;49174;43.198;27.824;2023-05-10T21:20:48;11.07;;;4.50;;
63089;SDS011;49174;43.198;27.824;2023-05-10T21:23:14;13.43;;;4.60;;
63089;SDS011;49174;43.198;27.824;2023-05-10T21:25:40;7.80;;;4.63;;
63089;SDS011;49174;43.198;27.824;2023-05-10T21:28:05;6.88;;;4.35;;
63089;SDS011;49174;43.198;27.824;2023-05-10T21:30:31;6.90;;;4.05;;
63089;SDS011;49174;43.198;27.824;2023-05-10T21:32:57;6.82;;;4.75;;
63089;SDS011;49174;43.198;27.824;2023-05-10T21:35:24;11.30;;;4.82;;
63089;SDS011;49174;43.198;27.824;2023-05-10T21:37:50;10.27;;;5.70;;